• Join FlightAware (Why Join?)
  • Login
  • US Flag 
02:04AM EDT


 

Airport Tracker/Info


-or-


 

Live Flight TrackerFlight Track Log ✈ FLG3795 ✈ 23-Jun-2013 ✈ KATL - KFWA

Flight Track Log - Related Links

Times and Time Zones

All times are in EDT time to prevent confusion due to time zone crossing. See the FLG3795 flight status page for this flight to view local times or setup timezone preferences in your user account.

Time Position Orientation Groundspeed Altitude Reporting Facility
EDT Latitude Longitude Course Direction KTS MPH feet Rate Location/Type
03:33PM 33.6478 -84.3808 320° Northwest 444 511 2,500  Level Atlanta Center
03:34PM 33.6603 -84.3083 78° East 346 398 4,000 1,620 Climbing Atlanta Center
03:35PM 33.6961 -84.2411 57° Northeast 260 299 5,800 2,040 Climbing Atlanta Center
03:36PM 33.8976 -84.2309 320° Northwest  Level FlightAware Approximate
03:36PM 33.7794 -84.2811 338° Northwest 287 330 8,100  Level Atlanta Center
03:37PM 33.9838 -84.3170 320° Northwest  Level FlightAware Approximate
03:37PM 33.8461 -84.3239 332° Northwest 308 354 10,100  Level Atlanta Center
03:38PM 34.0699 -84.4032 320° Northwest  Level FlightAware Approximate
03:38PM 33.9294 -84.3742 333° Northwest 320 368 11,100  Level Atlanta Center
03:39PM 34.0211 -84.4272 334° Northwest 347 399 12,700 1,560 Climbing Atlanta Center
03:40PM 34.1108 -84.4853 332° Northwest 358 412 14,300 1,440 Climbing Atlanta Center
03:41PM 34.2022 -84.5436 332° Northwest 365 420 15,600 840 Climbing Atlanta Center
03:42PM 34.3003 -84.5994 335° Northwest 378 435 16,000 300 Climbing Atlanta Center
03:43PM 34.4128 -84.6256 349° North 400 460 16,300 360 Climbing Atlanta Center
03:44PM 34.5317 -84.6567 348° North 423 487 16,800 1,080 Climbing Atlanta Center
03:45PM 34.6419 -84.6875 347° North 423 487 18,500 1,380 Climbing Atlanta Center
03:46PM 34.7503 -84.7189 347° North 406 467 19,600 1,020 Climbing Atlanta Center
03:47PM 34.8628 -84.7450 349° North 401 461 20,600 960 Climbing Atlanta Center
03:48PM 34.9669 -84.7714 348° North 401 461 21,600 960 Climbing Atlanta Center
03:49PM 35.0756 -84.7975 349° North 391 450 22,600 960 Climbing Atlanta Center
03:50PM 35.1817 -84.8239 349° North 391 450 23,600 960 Climbing Atlanta Center
03:51PM 35.2878 -84.8503 349° North 391 450 24,600 960 Climbing Atlanta Center
03:52PM 35.3942 -84.8769 348° North 391 450 25,600 960 Climbing Atlanta Center
03:53PM 35.4983 -84.9036 348° North 391 450 26,600 960 Climbing Atlanta Center
03:54PM 35.6025 -84.9300 348° North 391 450 27,600 840 Climbing Atlanta Center
03:55PM 35.7044 -84.9569 348° North 385 443 28,300 540 Climbing Atlanta Center
03:56PM 35.7917 -84.9989 339° North 380 437 28,700 480 Climbing Atlanta Center
03:57PM 35.9317 -85.0647 339° North 389 448 29,400 480 Climbing Indianapolis Center
03:58PM 36.0408 -85.0803 353° North 389 448 29,900 240 Climbing Indianapolis Center
03:59PM 36.1522 -85.0553 10° North 403 464 30,000  Climbing Indianapolis Center
04:00PM 36.2619 -85.0794 350° North 398 458 30,000  Level Indianapolis Center
04:01PM 36.3747 -85.1081 348° North 409 471 30,000  Level Indianapolis Center
04:02PM 36.4867 -85.1375 348° North 411 473 30,000  Level Indianapolis Center
04:03PM 36.6022 -85.1689 348° North 422 486 30,000  Level Indianapolis Center
04:04PM 36.7408 -85.2064 348° North 424 488 30,000  Level Indianapolis Center
04:06PM 36.8578 -85.2369 348° North 428 493 30,000  Level Indianapolis Center
04:07PM 36.9756 -85.2681 348° North 432 497 30,000  Level Indianapolis Center
04:08PM 37.0975 -85.3025 347° North 432 497 30,000  Level Indianapolis Center
04:09PM 37.2156 -85.3336 348° North 431 496 30,000  Level Indianapolis Center
04:10PM 37.3350 -85.3653 348° North 434 499 30,000  Level Indianapolis Center
04:11PM 37.4539 -85.3981 348° North 435 501 30,000  Level Indianapolis Center
04:12PM 37.5719 -85.4308 348° North 434 499 30,000  Level Indianapolis Center
04:13PM 37.7100 -85.4706 347° North 434 499 30,000  Level Indianapolis Center
04:14PM 37.8308 -85.5028 348° North 440 506 30,000  Level Indianapolis Center
04:15PM 37.9464 -85.5325 349° North 447 514 30,000  Level Indianapolis Center
04:16PM 38.0650 -85.5597 350° North 438 504 30,000  Level Indianapolis Center
04:17PM 38.1886 -85.5431 North 443 510 30,000  Level Indianapolis Center
04:18PM 38.3169 -85.5275 North 439 505 30,000  Level Indianapolis Center
04:19PM 38.4564 -85.5108 North 440 506 30,000  Level Indianapolis Center
04:20PM 38.5769 -85.4956 North 436 502 30,000  Level Indianapolis Center
04:21PM 38.7039 -85.4814 North 435 501 30,000  Level Indianapolis Center
04:22PM 38.8244 -85.4669 North 435 501 30,000 -480 Level Indianapolis Center
04:23PM 38.9467 -85.4514 North 441 507 29,100 -540 Descending Indianapolis Center
04:24PM 39.0725 -85.4358 North 455 524 29,000 -780 Descending Indianapolis Center
04:25PM 39.1961 -85.4203 North 450 518 27,600 -1,800 Descending Indianapolis Center
04:26PM 39.3167 -85.4044 North 441 507 25,400 -1,800 Descending Indianapolis Center
04:27PM 39.4581 -85.3867 North 428 493 24,000 -1,260 Descending Indianapolis Center
04:28PM 39.5731 -85.3728 North 419 482 22,900 -1,740 Descending Indianapolis Center
04:29PM 39.6883 -85.3572 North 420 483 20,500 -2,400 Descending Indianapolis Center
04:30PM 39.7983 -85.3431 North 405 466 18,000 -2,400 Descending Indianapolis Center
04:31PM 39.9025 -85.3139 12° North 386 444 15,700 -2,640 Descending Indianapolis Center
04:32PM 40.0231 -85.2692 16° North 378 435 12,700 -2,220 Descending Indianapolis Center
04:33PM 40.1164 -85.2353 16° North 356 410 11,200 -780 Descending Indianapolis Center
04:34PM 40.2092 -85.2256 North 337 388 11,100 -60 Descending Indianapolis Center
04:35PM 40.3050 -85.2408 353° North 347 399 11,100 -60 Level Indianapolis Center
04:36PM 40.3844 -85.2411 360° North 360 414 11,000 -120 Descending Chicago Center
04:37PM 40.4778 -85.2433 359° North 345 397 10,900 -720 Descending Chicago Center
04:38PM 40.5611 -85.2342 North 314 361 9,600 -1,380 Descending Chicago Center
04:39PM 40.6431 -85.2242 North 300 345 8,100 -1,680 Descending Chicago Center
04:40PM 40.7311 -85.2136 North 297 342 6,200 -1,500 Descending Chicago Center
04:41PM 40.8069 -85.1917 12° North 287 330 5,000 -600 Descending Chicago Center
04:42PM 40.8928 -85.1397 25° Northeast 284 327 5,000 -360 Level Chicago Center
04:43PM 40.9614 -85.0978 25° Northeast 279 321 4,300 -720 Descending Chicago Center